createdAt,value
2023-02-11T00:01:43.086Z,4.68
2023-02-11T00:04:13.135Z,4.28
2023-02-11T00:06:42.751Z,3.90
2023-02-11T00:09:15.091Z,4.28
2023-02-11T00:11:44.713Z,3.65
2023-02-11T00:14:12.161Z,3.88
2023-02-11T00:16:39.430Z,3.72
2023-02-11T00:19:06.902Z,3.85
2023-02-11T00:21:36.761Z,3.50
2023-02-11T00:24:04.526Z,3.53
2023-02-11T00:26:35.541Z,3.85
2023-02-11T00:29:04.114Z,3.22
2023-02-11T00:31:34.215Z,3.22
2023-02-11T00:34:01.698Z,3.58
2023-02-11T00:36:29.665Z,3.83
2023-02-11T00:38:58.069Z,3.90
2023-02-11T00:41:30.004Z,3.60
2023-02-11T00:43:57.366Z,3.42
2023-02-11T00:46:24.891Z,3.47
2023-02-11T00:48:55.041Z,3.20
2023-02-11T00:51:22.412Z,3.88
2023-02-11T00:53:49.647Z,3.70
2023-02-11T00:56:19.116Z,3.45
2023-02-11T00:58:46.462Z,3.35
2023-02-11T01:01:13.798Z,3.75
2023-02-11T01:03:41.246Z,3.85
2023-02-11T01:06:11.681Z,3.42
2023-02-11T01:08:41.978Z,3.80
2023-02-11T01:11:20.503Z,3.28
2023-02-11T01:13:49.782Z,3.95
2023-02-11T01:16:18.049Z,3.60
2023-02-11T01:18:46.528Z,3.67
2023-02-11T01:21:16.503Z,3.30
2023-02-11T01:23:43.926Z,3.17
2023-02-11T01:26:11.199Z,3.70
2023-02-11T01:28:40.610Z,3.58
2023-02-11T01:31:07.923Z,3.25
2023-02-11T01:33:37.391Z,3.38
2023-02-11T01:36:08.200Z,3.55
2023-02-11T01:38:36.076Z,3.85
2023-02-11T01:41:06.331Z,3.33
2023-02-11T01:43:39.555Z,3.70
2023-02-11T01:46:34.147Z,3.47
2023-02-11T01:49:18.074Z,3.95
2023-02-11T01:52:02.092Z,3.60
2023-02-11T01:54:51.638Z,4.10
2023-02-11T01:57:26.252Z,3.72
2023-02-11T02:00:14.094Z,4.20
2023-02-11T02:03:13.231Z,4.05
2023-02-11T02:05:45.613Z,3.90
2023-02-11T02:08:24.960Z,3.75
2023-02-11T02:10:56.547Z,3.25
2023-02-11T02:13:24.927Z,3.45
2023-02-11T02:15:57.333Z,3.47
2023-02-11T02:18:38.997Z,3.65
2023-02-11T02:21:43.794Z,3.67
2023-02-11T02:24:45.839Z,3.55
2023-02-11T02:27:21.115Z,3.42
2023-02-11T02:30:13.109Z,3.85
2023-02-11T02:33:21.570Z,3.90
2023-02-11T02:36:10.674Z,4.10
2023-02-11T02:38:41.715Z,3.20
2023-02-11T02:41:22.365Z,3.28
2023-02-11T02:43:51.343Z,3.35
2023-02-11T02:46:31.562Z,3.55
2023-02-11T02:49:02.082Z,4.00
2023-02-11T02:51:43.879Z,3.55
2023-02-11T02:54:36.947Z,3.30
2023-02-11T02:57:12.966Z,3.53
2023-02-11T03:00:24.815Z,3.45
2023-02-11T03:03:07.029Z,3.78
2023-02-11T03:05:56.108Z,3.45
2023-02-11T03:08:34.335Z,3.55
2023-02-11T03:11:03.322Z,3.55
2023-02-11T03:13:36.745Z,3.55
2023-02-11T03:18:48.514Z,3.30
2023-02-11T03:21:17.563Z,3.20
2023-02-11T03:23:55.220Z,3.75
2023-02-11T03:26:38.455Z,3.58
2023-02-11T03:29:24.651Z,3.50
2023-02-11T03:32:07.497Z,3.17
2023-02-11T03:34:56.132Z,3.67
2023-02-11T03:37:40.108Z,3.42
2023-02-11T03:40:15.457Z,3.80
2023-02-11T03:43:06.676Z,3.50
2023-02-11T03:45:38.954Z,3.50
2023-02-11T03:48:30.363Z,3.70
2023-02-11T03:51:01.623Z,3.33
2023-02-11T03:53:30.988Z,3.95
2023-02-11T03:56:02.702Z,3.50
2023-02-11T03:58:32.498Z,3.40
2023-02-11T04:01:01.684Z,4.10
2023-02-11T04:03:29.028Z,3.60
2023-02-11T04:06:00.877Z,3.97
2023-02-11T04:08:28.214Z,3.55
2023-02-11T04:10:55.453Z,3.80
2023-02-11T04:13:22.866Z,3.78
2023-02-11T04:15:51.367Z,4.15
2023-02-11T04:18:18.777Z,4.10
2023-02-11T04:20:46.191Z,3.70
2023-02-11T04:23:13.428Z,4.20
2023-02-11T04:25:45.548Z,4.07
2023-02-11T04:28:12.786Z,3.88
2023-02-11T04:30:40.063Z,4.50
2023-02-11T04:33:09.669Z,4.15
2023-02-11T04:35:39.153Z,4.18
2023-02-11T04:38:06.401Z,4.32
2023-02-11T04:40:33.712Z,4.57
2023-02-11T04:43:00.988Z,4.28
2023-02-11T04:45:28.220Z,4.45
2023-02-11T04:48:01.326Z,4.60
2023-02-11T04:50:28.634Z,4.05
2023-02-11T04:53:01.295Z,5.35
2023-02-11T04:55:30.886Z,4.75
2023-02-11T04:57:58.154Z,4.90
2023-02-11T05:00:25.385Z,5.50
2023-02-11T05:02:52.810Z,5.63
2023-02-11T05:05:22.520Z,5.65
2023-02-11T05:07:54.432Z,5.50
2023-02-11T05:10:24.200Z,5.20
2023-02-11T05:12:55.957Z,5.40
2023-02-11T05:15:26.234Z,5.15
2023-02-11T05:17:56.230Z,5.47
2023-02-11T05:20:23.499Z,5.57
2023-02-11T05:22:50.779Z,6.13
2023-02-11T05:25:20.402Z,5.90
2023-02-11T05:27:49.778Z,5.40
2023-02-11T05:30:17.186Z,5.40
2023-02-11T05:32:46.922Z,5.63
2023-02-11T05:35:16.762Z,6.05
2023-02-11T05:37:44.218Z,6.00
2023-02-11T05:40:14.840Z,6.18
2023-02-11T05:42:42.121Z,5.95
2023-02-11T05:45:09.711Z,6.43
2023-02-11T05:47:39.176Z,5.70
2023-02-11T05:50:06.717Z,5.90
2023-02-11T05:52:36.939Z,6.85
2023-02-11T05:55:04.720Z,6.30
2023-02-11T05:57:32.032Z,6.55
2023-02-11T06:00:01.726Z,7.03
2023-02-11T06:02:29.054Z,6.50
2023-02-11T06:04:56.351Z,6.38
2023-02-11T06:07:23.683Z,6.40
2023-02-11T06:09:51.061Z,7.10
2023-02-11T06:12:25.540Z,7.13
2023-02-11T06:14:55.282Z,6.80
2023-02-11T06:17:23.344Z,7.05
2023-02-11T06:19:50.589Z,7.07
2023-02-11T06:22:20.438Z,7.28
2023-02-11T06:25:00.849Z,7.82
2023-02-11T06:27:31.607Z,7.32
2023-02-11T06:30:01.124Z,7.47
2023-02-11T06:32:43.505Z,7.78
2023-02-11T06:35:14.765Z,7.82
2023-02-11T06:37:45.001Z,7.32
2023-02-11T06:40:13.066Z,8.10
2023-02-11T06:42:40.330Z,7.13
2023-02-11T06:45:10.883Z,7.35
2023-02-11T06:47:38.746Z,7.68
2023-02-11T06:50:11.338Z,7.85
2023-02-11T06:52:38.609Z,8.57
2023-02-11T06:55:06.285Z,8.75
2023-02-11T06:57:33.565Z,7.72
2023-02-11T07:00:03.041Z,7.82
2023-02-11T07:02:30.338Z,7.78
2023-02-11T07:04:57.635Z,8.25
2023-02-11T07:07:24.895Z,8.63
2023-02-11T07:09:52.160Z,7.90
2023-02-11T07:12:20.226Z,9.07
2023-02-11T07:14:49.725Z,8.65
2023-02-11T07:17:19.370Z,8.02
2023-02-11T07:19:48.868Z,9.13
2023-02-11T07:22:16.126Z,8.95
2023-02-11T07:24:43.522Z,8.80
2023-02-11T07:27:10.878Z,8.02
2023-02-11T07:29:41.706Z,9.32
2023-02-11T07:32:13.880Z,9.35
2023-02-11T07:34:41.244Z,9.07
2023-02-11T07:37:10.971Z,9.95
2023-02-11T07:39:38.239Z,9.77
2023-02-11T07:42:05.809Z,9.82
2023-02-11T07:44:33.386Z,9.65
2023-02-11T07:47:00.754Z,9.90
2023-02-11T07:49:28.234Z,10.35
2023-02-11T07:51:55.558Z,10.70
2023-02-11T07:54:22.847Z,10.95
2023-02-11T07:56:54.520Z,10.95
2023-02-11T07:59:24.962Z,11.10
2023-02-11T08:01:52.487Z,11.43
2023-02-11T08:04:19.769Z,11.25
2023-02-11T08:06:47.130Z,10.82
2023-02-11T08:09:19.197Z,11.35
2023-02-11T08:11:46.482Z,11.18
2023-02-11T08:14:18.736Z,11.15
2023-02-11T08:16:46.058Z,11.13
2023-02-11T08:19:15.542Z,11.55
2023-02-11T08:21:46.109Z,10.52
2023-02-11T08:24:15.978Z,11.65
2023-02-11T08:26:47.950Z,11.30
2023-02-11T08:29:17.903Z,11.57
2023-02-11T08:31:46.975Z,11.18
2023-02-11T08:34:18.378Z,11.18
2023-02-11T08:36:48.953Z,11.25
2023-02-11T08:39:20.613Z,11.13
2023-02-11T08:41:53.202Z,11.90
2023-02-11T08:44:24.239Z,12.02
2023-02-11T08:46:51.967Z,11.30
2023-02-11T08:49:19.663Z,11.30
2023-02-11T08:51:47.847Z,11.85
2023-02-11T08:54:18.100Z,11.00
2023-02-11T08:56:50.528Z,11.93
2023-02-11T08:59:20.299Z,11.25
2023-02-11T09:01:49.972Z,11.85
2023-02-11T09:04:17.459Z,10.95
2023-02-11T09:06:47.132Z,11.18
2023-02-11T09:09:15.985Z,11.23
2023-02-11T09:11:44.704Z,11.50
2023-02-11T09:14:21.949Z,11.38
2023-02-11T09:16:50.885Z,11.70
2023-02-11T09:19:21.241Z,11.60
2023-02-11T09:21:49.125Z,11.40
2023-02-11T09:24:19.692Z,11.57
2023-02-11T09:26:51.554Z,11.65
2023-02-11T09:29:18.792Z,11.77
2023-02-11T09:31:50.882Z,11.88
2023-02-11T09:34:20.597Z,12.07
2023-02-11T09:36:47.865Z,12.18
2023-02-11T09:39:18.220Z,13.68
2023-02-11T09:41:45.464Z,12.77
2023-02-11T09:44:25.308Z,13.40
2023-02-11T09:47:22.677Z,14.65
2023-02-11T09:50:02.531Z,12.63
2023-02-11T09:53:14.958Z,12.40
2023-02-11T09:55:44.958Z,11.48
2023-02-11T09:58:19.588Z,12.75
2023-02-11T10:00:53.451Z,13.48
2023-02-11T10:03:50.308Z,13.57
2023-02-11T10:06:33.496Z,13.70
2023-02-11T10:09:27.009Z,13.02
2023-02-11T10:12:31.613Z,13.50
2023-02-11T10:15:24.276Z,13.10
2023-02-11T10:18:28.302Z,13.18
2023-02-11T10:21:19.767Z,13.27
2023-02-11T10:23:54.415Z,13.85
2023-02-11T10:26:22.163Z,13.80
2023-02-11T10:28:53.063Z,14.70
2023-02-11T10:31:28.148Z,14.48
2023-02-11T10:34:05.955Z,13.70
2023-02-11T10:36:41.550Z,15.15
2023-02-11T10:39:19.575Z,14.43
2023-02-11T10:41:56.907Z,14.00
2023-02-11T10:44:53.063Z,14.75
2023-02-11T10:47:27.237Z,14.02
2023-02-11T10:49:54.724Z,15.32
2023-02-11T10:52:27.511Z,15.57
2023-02-11T10:55:00.967Z,16.42
2023-02-11T11:00:34.090Z,17.73
2023-02-11T11:03:02.154Z,15.38
2023-02-11T11:06:00.256Z,14.77
2023-02-11T11:08:50.812Z,14.18
2023-02-11T11:11:23.643Z,17.33
2023-02-11T11:13:56.393Z,19.75
2023-02-11T11:16:32.538Z,18.15
2023-02-11T11:19:13.564Z,14.65
2023-02-11T11:21:45.650Z,13.75
2023-02-11T11:24:34.527Z,14.40
2023-02-11T11:27:04.120Z,15.60
2023-02-11T11:29:36.874Z,15.60
2023-02-11T11:32:29.520Z,13.85
2023-02-11T11:35:02.685Z,15.00
2023-02-11T11:37:35.978Z,15.23
2023-02-11T11:40:03.241Z,13.88
2023-02-11T11:42:33.180Z,14.50
2023-02-11T11:45:23.135Z,15.23
2023-02-11T11:48:23.575Z,13.43
2023-02-11T11:51:00.211Z,13.80
2023-02-11T11:53:34.325Z,14.93
2023-02-11T11:56:09.275Z,15.15
2023-02-11T11:58:36.602Z,14.73
2023-02-11T12:01:37.840Z,14.77
2023-02-11T12:04:39.514Z,26.17
2023-02-11T12:07:22.009Z,29.33
2023-02-11T12:13:01.201Z,15.27
2023-02-11T12:15:52.863Z,17.38
2023-02-11T12:18:32.960Z,16.17
2023-02-11T12:21:44.675Z,14.30
2023-02-11T12:24:41.239Z,15.30
2023-02-11T12:27:26.393Z,16.23
2023-02-11T12:30:40.245Z,17.52
2023-02-11T12:33:36.663Z,16.20
2023-02-11T12:36:45.134Z,16.30
2023-02-11T12:39:36.198Z,14.35
2023-02-11T12:42:29.436Z,13.98
2023-02-11T12:45:42.081Z,18.67
2023-02-11T12:48:12.890Z,14.57
2023-02-11T12:50:49.431Z,14.70
2023-02-11T12:53:50.426Z,17.77
2023-02-11T12:56:26.603Z,18.25
2023-02-11T12:58:59.803Z,14.05
2023-02-11T13:01:34.067Z,16.52
2023-02-11T13:04:16.559Z,15.48
2023-02-11T13:06:53.610Z,14.60
2023-02-11T13:09:32.095Z,15.70
2023-02-11T13:12:24.609Z,18.77
2023-02-11T13:15:02.061Z,16.98
2023-02-11T13:17:38.344Z,22.13
2023-02-11T13:20:30.255Z,19.70
2023-02-11T13:23:09.386Z,17.92
2023-02-11T13:25:41.635Z,15.15
2023-02-11T13:28:20.200Z,17.52
2023-02-11T13:30:52.107Z,14.68
2023-02-11T13:33:42.942Z,15.63
2023-02-11T13:36:12.087Z,15.82
2023-02-11T13:38:39.770Z,17.10
2023-02-11T13:41:30.727Z,18.10
2023-02-11T13:44:25.557Z,16.52
2023-02-11T13:46:55.929Z,16.95
2023-02-11T13:49:47.912Z,16.52
2023-02-11T13:52:33.349Z,17.65
2023-02-11T13:55:24.437Z,18.05
2023-02-11T13:58:06.991Z,19.73
2023-02-11T14:00:37.319Z,14.88
2023-02-11T14:03:31.927Z,14.63
2023-02-11T14:06:26.768Z,14.65
2023-02-11T14:09:12.012Z,14.95
2023-02-11T14:11:42.285Z,15.05
2023-02-11T14:14:18.539Z,14.85
2023-02-11T14:17:07.962Z,15.35
2023-02-11T14:19:38.984Z,16.00
2023-02-11T14:22:21.833Z,15.55
2023-02-11T14:25:04.340Z,15.77
2023-02-11T14:27:39.284Z,16.85
2023-02-11T14:30:47.529Z,14.15
2023-02-11T14:33:39.345Z,16.45
2023-02-11T14:36:09.619Z,16.17
2023-02-11T14:38:42.736Z,16.05
2023-02-11T14:41:31.914Z,15.00
2023-02-11T14:44:04.408Z,14.85
2023-02-11T14:46:33.694Z,15.87
2023-02-11T14:49:03.566Z,14.68
2023-02-11T14:51:40.373Z,15.95
2023-02-11T14:54:25.159Z,15.80
2023-02-11T14:57:15.744Z,15.98
2023-02-11T15:00:04.872Z,15.98
2023-02-11T15:02:38.311Z,15.43
2023-02-11T15:05:22.670Z,15.82
2023-02-11T15:07:56.235Z,15.10
2023-02-11T15:13:04.795Z,15.15
2023-02-11T15:15:34.621Z,14.93
2023-02-11T15:18:09.573Z,16.38
2023-02-11T15:20:41.532Z,15.55
2023-02-11T15:23:19.883Z,16.67
2023-02-11T15:25:55.551Z,15.43
2023-02-11T15:28:32.305Z,15.25
2023-02-11T15:31:15.490Z,15.90
2023-02-11T15:33:43.046Z,16.52
2023-02-11T15:36:17.858Z,15.13
2023-02-11T15:38:47.307Z,15.52
2023-02-11T15:41:37.776Z,15.63
2023-02-11T15:44:05.190Z,15.80
2023-02-11T15:46:40.194Z,15.73
2023-02-11T15:49:19.132Z,16.02
2023-02-11T15:51:51.515Z,16.08
2023-02-11T15:54:23.961Z,16.08
2023-02-11T15:56:55.575Z,15.50
2023-02-11T15:59:35.324Z,16.15
2023-02-11T16:02:15.920Z,15.90
2023-02-11T16:04:56.443Z,16.15
2023-02-11T16:07:49.693Z,16.25
2023-02-11T16:10:33.461Z,15.27
2023-02-11T16:15:33.861Z,15.43
2023-02-11T16:18:03.138Z,16.25
2023-02-11T16:20:33.807Z,15.65
2023-02-11T16:23:05.735Z,16.25
2023-02-11T16:25:35.454Z,15.68
2023-02-11T16:28:05.385Z,16.23
2023-02-11T16:30:35.212Z,17.23
2023-02-11T16:33:02.995Z,16.98
2023-02-11T16:35:33.125Z,17.02
2023-02-11T16:38:03.135Z,18.02
2023-02-11T16:40:30.446Z,16.63
2023-02-11T16:43:00.186Z,16.25
2023-02-11T16:45:27.521Z,17.30
2023-02-11T16:47:57.017Z,16.13
2023-02-11T16:50:25.617Z,15.90
2023-02-11T16:52:55.135Z,15.77
2023-02-11T16:55:25.283Z,16.27
2023-02-11T16:57:55.548Z,18.52
2023-02-11T17:00:23.326Z,17.77
2023-02-11T17:02:50.652Z,18.80
2023-02-11T17:05:25.218Z,18.60
2023-02-11T17:07:55.814Z,20.45
2023-02-11T17:10:26.080Z,17.13
2023-02-11T17:12:53.493Z,18.63
2023-02-11T17:15:23.090Z,17.90
2023-02-11T17:17:52.863Z,17.58
2023-02-11T17:20:20.499Z,18.52
2023-02-11T17:22:50.380Z,18.42
2023-02-11T17:25:20.521Z,19.27
2023-02-11T17:27:47.927Z,19.25
2023-02-11T17:30:17.734Z,19.83
2023-02-11T17:32:45.074Z,20.02
2023-02-11T17:35:12.696Z,18.90
2023-02-11T17:37:40.644Z,19.80
2023-02-11T17:40:08.909Z,19.02
2023-02-11T17:42:36.175Z,19.83
2023-02-11T17:45:04.082Z,18.45
2023-02-11T17:47:31.378Z,17.08
2023-02-11T17:50:02.996Z,18.15
2023-02-11T17:52:36.583Z,17.70
2023-02-11T17:55:06.820Z,17.88
2023-02-11T17:57:34.411Z,17.23
2023-02-11T18:00:01.868Z,16.38
2023-02-11T18:02:29.118Z,17.63
2023-02-11T18:04:57.737Z,18.30
2023-02-11T18:07:29.979Z,18.58
2023-02-11T18:09:57.218Z,17.38
2023-02-11T18:12:27.543Z,17.63
2023-02-11T18:14:58.255Z,18.08
2023-02-11T18:17:25.977Z,17.48
2023-02-11T18:19:56.951Z,17.48
2023-02-11T18:22:25.139Z,17.90
2023-02-11T18:24:54.340Z,16.77
2023-02-11T18:27:24.705Z,17.70
2023-02-11T18:29:54.441Z,17.00
2023-02-11T18:32:21.675Z,16.92
2023-02-11T18:34:48.946Z,17.73
2023-02-11T18:37:16.387Z,17.40
2023-02-11T18:39:43.816Z,17.33
2023-02-11T18:42:13.403Z,18.98
2023-02-11T18:44:43.273Z,18.67
2023-02-11T18:47:15.185Z,21.27
2023-02-11T18:49:44.769Z,19.58
2023-02-11T18:52:11.996Z,19.67
2023-02-11T18:54:39.247Z,19.40
2023-02-11T18:57:06.569Z,18.73
2023-02-11T18:59:39.502Z,18.27
2023-02-11T19:02:09.181Z,19.15
2023-02-11T19:04:37.355Z,19.75
2023-02-11T19:07:07.334Z,19.67
2023-02-11T19:09:37.514Z,19.73
2023-02-11T19:12:08.633Z,19.38
2023-02-11T19:14:36.465Z,19.67
2023-02-11T19:17:06.615Z,18.98
2023-02-11T19:19:35.775Z,18.80
2023-02-11T19:22:09.169Z,20.40
2023-02-11T19:24:44.495Z,20.30
2023-02-11T19:27:11.998Z,20.52
2023-02-11T19:29:39.275Z,19.73
2023-02-11T19:32:07.067Z,18.50
2023-02-11T19:34:41.088Z,18.73
2023-02-11T19:37:14.211Z,18.63
2023-02-11T19:39:42.480Z,17.85
2023-02-11T19:42:10.371Z,18.75
2023-02-11T19:44:37.732Z,19.70
2023-02-11T19:47:07.469Z,20.55
2023-02-11T19:49:34.844Z,21.40
2023-02-11T19:52:07.344Z,19.92
2023-02-11T19:54:38.375Z,19.85
2023-02-11T19:57:05.638Z,22.60
2023-02-11T19:59:35.439Z,20.52
2023-02-11T20:02:02.691Z,20.35
2023-02-11T20:04:32.255Z,19.25
2023-02-11T20:07:01.955Z,19.55
2023-02-11T20:09:31.131Z,19.08
2023-02-11T20:12:01.309Z,19.45
2023-02-11T20:14:30.801Z,21.02
2023-02-11T20:16:58.034Z,19.30
2023-02-11T20:19:27.974Z,20.85
2023-02-11T20:21:57.611Z,21.58
2023-02-11T20:24:28.417Z,20.30
2023-02-11T20:26:58.546Z,20.77
2023-02-11T20:29:25.983Z,22.00
2023-02-11T20:31:55.749Z,20.95
2023-02-11T20:34:24.523Z,20.73
2023-02-11T20:36:54.953Z,19.70
2023-02-11T20:39:25.674Z,21.15
2023-02-11T20:41:53.891Z,20.30
2023-02-11T20:44:24.613Z,21.02
2023-02-11T20:46:54.729Z,21.83
2023-02-11T20:49:24.070Z,25.40
2023-02-11T20:51:54.405Z,19.23
2023-02-11T20:54:25.270Z,20.27
2023-02-11T20:56:56.964Z,19.77
2023-02-11T20:59:27.246Z,21.15
2023-02-11T21:01:56.216Z,24.67
2023-02-11T21:04:28.496Z,23.23
2023-02-11T21:07:00.316Z,22.73
2023-02-11T21:09:33.206Z,21.75
2023-02-11T21:12:01.506Z,20.23
2023-02-11T21:14:29.783Z,19.83
2023-02-11T21:16:57.641Z,19.73
2023-02-11T21:19:25.202Z,19.95
2023-02-11T21:21:52.822Z,21.63
2023-02-11T21:24:22.510Z,22.50
2023-02-11T21:26:49.777Z,22.17
2023-02-11T21:29:17.060Z,21.95
2023-02-11T21:31:46.776Z,19.30
2023-02-11T21:34:16.071Z,19.30
2023-02-11T21:36:45.745Z,21.35
2023-02-11T21:39:13.769Z,20.80
2023-02-11T21:41:43.181Z,21.45
2023-02-11T21:44:12.875Z,19.13
2023-02-11T21:46:40.513Z,20.27
2023-02-11T21:49:10.407Z,19.35
2023-02-11T21:51:37.799Z,20.00
2023-02-11T21:54:05.189Z,20.65
2023-02-11T21:56:37.537Z,20.33
2023-02-11T21:59:07.634Z,21.27
2023-02-11T22:01:40.465Z,19.98
2023-02-11T22:04:10.306Z,20.33
2023-02-11T22:06:38.101Z,20.00
2023-02-11T22:09:08.098Z,19.88
2023-02-11T22:11:37.861Z,19.17
2023-02-11T22:14:08.428Z,19.77
2023-02-11T22:16:38.567Z,18.42
2023-02-11T22:19:07.530Z,19.77
2023-02-11T22:21:34.838Z,18.40
2023-02-11T22:24:04.845Z,18.45
2023-02-11T22:26:35.263Z,18.30
2023-02-11T22:29:02.811Z,18.23
2023-02-11T22:31:34.680Z,18.73
2023-02-11T22:34:07.708Z,21.00
2023-02-11T22:36:41.166Z,19.52
2023-02-11T22:41:41.009Z,18.83
2023-02-11T22:44:08.840Z,18.90
2023-02-11T22:46:39.358Z,18.58
2023-02-11T22:49:07.434Z,18.35
2023-02-11T22:51:38.490Z,18.02
2023-02-11T22:54:10.220Z,18.52
2023-02-11T22:56:37.523Z,17.17
2023-02-11T22:59:10.848Z,16.95
2023-02-11T23:01:40.308Z,15.82
2023-02-11T23:04:10.565Z,15.73
2023-02-11T23:06:38.244Z,16.25
2023-02-11T23:09:10.001Z,15.30
2023-02-11T23:11:37.280Z,14.52
2023-02-11T23:14:05.161Z,14.88
2023-02-11T23:16:34.432Z,13.77
2023-02-11T23:19:08.412Z,14.07
2023-02-11T23:21:38.878Z,15.20
2023-02-11T23:24:13.853Z,14.40
2023-02-11T23:26:44.258Z,14.77
2023-02-11T23:29:14.176Z,15.40
2023-02-11T23:31:46.500Z,14.57
2023-02-11T23:34:18.367Z,13.32
2023-02-11T23:36:47.861Z,13.98
2023-02-11T23:39:16.937Z,13.27
2023-02-11T23:41:45.389Z,13.75
2023-02-11T23:44:12.737Z,14.45
2023-02-11T23:46:42.399Z,13.88
2023-02-11T23:49:09.977Z,13.77
2023-02-11T23:51:37.220Z,14.35
2023-02-11T23:54:09.397Z,13.90
2023-02-11T23:56:42.352Z,15.55
2023-02-11T23:59:12.168Z,14.82
